Time;durP1;ratioP1;P1;durP2;ratioP2;P2;SDS_P1;SDS_P2;PMS_P1;PMS_P2;Temp;Humidity;BMP_temperature;BMP_pressure;BME280_temperature;BME280_humidity;BME280_pressure;Samples;Min_cycle;Max_cycle;Signal;HPM_P1;HPM_P2
2021/10/01 00:00:09;;;;;;;0.87;0.53;;;12.50;99.90;;;;;;4957393;28;20180;-62
2021/10/01 00:02:34;;;;;;;0.50;0.25;;;12.40;99.90;;;;;;4956100;28;20625;-64
2021/10/01 00:05:00;;;;;;;0.30;0.20;;;12.50;99.90;;;;;;4957188;29;20216;-65
2021/10/01 00:07:29;;;;;;;0.83;0.40;;;12.60;68.70;;;;;;4956935;28;20662;-63
2021/10/01 00:09:55;;;;;;;0.40;0.40;;;12.50;19.50;;;;;;4955788;29;20458;-62
2021/10/01 00:12:21;;;;;;;0.90;0.70;;;12.50;56.40;;;;;;4956802;28;20692;-63
2021/10/01 00:14:48;;;;;;;0.30;0.20;;;12.60;15.00;;;;;;4956644;28;20423;-63
2021/10/01 00:17:14;;;;;;;0.60;0.60;;;12.50;24.50;;;;;;4956722;28;20195;-63
2021/10/01 00:19:40;;;;;;;0.30;0.20;;;12.40;1.00;;;;;;4956746;29;20204;-65
2021/10/01 00:22:06;;;;;;;0.97;0.97;;;12.40;1.00;;;;;;4957017;28;20629;-65
2021/10/01 00:24:32;;;;;;;0.30;0.20;;;12.50;27.90;;;;;;4957110;29;20192;-65
2021/10/01 00:26:58;;;;;;;2.95;2.78;;;12.50;1.00;;;;;;4956609;28;20196;-65
2021/10/01 00:29:23;;;;;;;0.80;0.50;;;12.50;1.00;;;;;;4956726;29;20516;-65
2021/10/01 00:31:49;;;;;;;0.40;0.20;;;12.50;1.00;;;;;;4956595;29;20189;-63
2021/10/01 00:34:15;;;;;;;3.13;1.03;;;12.50;1.00;;;;;;4956361;29;20191;-63
2021/10/01 00:36:40;;;;;;;0.40;0.37;;;12.60;1.00;;;;;;4956329;29;20506;-63
2021/10/01 00:39:07;;;;;;;0.30;0.10;;;12.60;1.00;;;;;;4956469;28;20222;-63
2021/10/01 00:41:34;;;;;;;3.15;1.30;;;12.60;68.50;;;;;;4956610;29;20180;-62
2021/10/01 00:44:00;;;;;;;0.47;0.22;;;12.60;88.80;;;;;;4956317;29;20598;-63
2021/10/01 00:46:26;;;;;;;0.40;0.30;;;12.60;87.30;;;;;;4956323;28;20613;-65
2021/10/01 00:48:52;;;;;;;0.30;0.20;;;12.60;81.10;;;;;;4956408;28;20199;-64
2021/10/01 00:51:18;;;;;;;0.30;0.20;;;12.60;54.10;;;;;;4971506;28;20188;-65
2021/10/01 00:53:45;;;;;;;0.30;0.20;;;12.70;99.90;;;;;;4956306;29;20222;-63
2021/10/01 00:56:11;;;;;;;0.40;0.20;;;12.70;52.50;;;;;;4956320;29;20177;-63
2021/10/01 00:58:37;;;;;;;0.30;0.20;;;12.60;99.90;;;;;;4971133;28;20172;-63
2021/10/01 01:03:29;;;;;;;0.40;0.27;;;12.60;99.90;;;;;;4956412;29;20794;-63
2021/10/01 01:06:51;;;;;;;0.53;0.53;;;12.70;99.90;;;;;;4955957;29;20471;-63
2021/10/01 01:09:27;;;;;;;0.85;0.85;;;12.60;99.90;;;;;;4934955;29;20282;-62
2021/10/01 01:12:05;;;;;;;0.30;0.20;;;12.50;99.90;;;;;;4935554;29;20319;-62
2021/10/01 01:14:55;;;;;;;0.30;0.10;;;12.60;99.90;;;;;;4947407;29;20282;-63
2021/10/01 01:17:52;;;;;;;0.30;0.20;;;12.60;99.90;;;;;;4956035;28;20662;-63
2021/10/01 01:20:28;;;;;;;0.30;0.20;;;12.70;1.00;;;;;;4947958;29;20188;-64
2021/10/01 01:23:20;;;;;;;0.40;0.20;;;12.60;1.00;;;;;;4956113;28;20180;-64
2021/10/01 01:26:26;;;;;;;0.30;0.20;;;12.60;1.00;;;;;;4956091;29;20194;-64
2021/10/01 01:29:09;;;;;;;0.40;0.20;;;12.80;1.00;;;;;;4955926;28;20207;-64
2021/10/01 01:31:56;;;;;;;0.30;0.10;;;12.80;1.00;;;;;;4956075;29;20215;-64
2021/10/01 01:34:29;;;;;;;0.40;0.20;;;12.80;1.00;;;;;;4956029;29;20219;-64
2021/10/01 01:37:01;;;;;;;0.50;0.40;;;12.80;99.90;;;;;;4955780;28;20176;-64
2021/10/01 01:39:27;;;;;;;0.30;0.20;;;12.80;99.90;;;;;;4955718;29;20180;-63
2021/10/01 01:41:55;;;;;;;0.30;0.10;;;12.80;99.90;;;;;;4955824;29;20181;-63
2021/10/01 01:44:21;;;;;;;0.30;0.20;;;12.90;99.90;;;;;;4955779;29;20184;-64
2021/10/01 01:46:48;;;;;;;3.13;1.92;;;12.80;99.90;;;;;;4954679;29;20184;-63
2021/10/01 01:49:15;;;;;;;2.45;0.80;;;12.70;32.40;;;;;;4955693;28;20641;-63
2021/10/01 01:51:40;;;;;;;0.40;0.28;;;12.80;99.90;;;;;;4955787;28;20235;-63
2021/10/01 01:54:07;;;;;;;0.80;0.50;;;12.80;1.00;;;;;;4955775;28;20577;-63
2021/10/01 01:56:33;;;;;;;0.88;0.40;;;12.80;51.70;;;;;;4955852;29;20486;-63
2021/10/01 01:59:01;;;;;;;0.80;0.50;;;12.80;99.90;;;;;;4955750;29;20610;-63
2021/10/01 02:01:29;;;;;;;0.55;0.55;;;12.70;99.90;;;;;;4955999;29;20539;-63
2021/10/01 02:03:55;;;;;;;7.03;0.80;;;12.80;95.40;;;;;;4955648;29;20194;-62
2021/10/01 02:06:22;;;;;;;0.30;0.20;;;12.70;99.90;;;;;;4955713;29;20195;-63
2021/10/01 02:08:48;;;;;;;0.50;0.35;;;12.70;99.90;;;;;;4955401;29;20195;-62
2021/10/01 02:11:17;;;;;;;0.30;0.20;;;12.70;99.90;;;;;;4955688;28;20216;-63
2021/10/01 02:13:46;;;;;;;0.30;0.20;;;12.90;1.00;;;;;;4955527;28;20235;-63
2021/10/01 02:16:12;;;;;;;0.30;0.20;;;12.80;1.00;;;;;;4955381;28;20177;-64
2021/10/01 02:18:40;;;;;;;0.40;0.22;;;12.90;1.00;;;;;;4954950;28;20184;-63
2021/10/01 02:21:07;;;;;;;0.35;0.20;;;12.90;1.00;;;;;;4954340;29;20180;-63
2021/10/01 02:23:33;;;;;;;1.17;1.17;;;13.00;1.00;;;;;;4955575;29;20199;-63
2021/10/01 02:28:54;;;;;;;1.05;0.70;;;12.90;1.00;;;;;;4958969;29;20454;-63
2021/10/01 02:31:26;;;;;;;0.40;0.38;;;12.90;1.00;;;;;;4959135;28;20226;-63
2021/10/01 02:33:52;;;;;;;0.30;0.20;;;12.80;1.00;;;;;;4958781;29;20712;-63
2021/10/01 02:36:18;;;;;;;0.70;0.52;;;12.80;1.00;;;;;;4957675;29;20246;-63
2021/10/01 02:38:44;;;;;;;0.40;0.20;;;12.90;1.00;;;;;;4958433;28;20176;-63
2021/10/01 02:41:10;;;;;;;0.40;0.30;;;12.80;1.00;;;;;;4958635;29;20176;-63
2021/10/01 02:43:35;;;;;;;0.87;0.47;;;12.90;1.00;;;;;;4958661;28;20738;-63
2021/10/01 02:46:01;;;;;;;0.47;0.30;;;12.70;1.00;;;;;;4958685;28;20195;-63
2021/10/01 02:48:26;;;;;;;0.40;0.30;;;12.70;55.40;;;;;;4958510;29;20188;-63
2021/10/01 02:50:59;;;;;;;1.07;1.07;;;12.70;36.20;;;;;;4958610;29;20251;-63
2021/10/01 02:53:51;;;;;;;0.40;0.32;;;12.70;1.00;;;;;;4958306;28;20258;-63
2021/10/01 02:56:28;;;;;;;0.30;0.20;;;12.80;91.80;;;;;;4950190;29;20202;-63
2021/10/01 02:59:03;;;;;;;2.72;0.60;;;12.80;99.90;;;;;;4958052;29;20176;-63
2021/10/01 03:01:30;;;;;;;4.10;0.68;;;12.80;1.00;;;;;;4957239;29;20180;-63
2021/10/01 03:04:07;;;;;;;0.30;0.20;;;12.70;99.90;;;;;;4957729;28;20192;-63
2021/10/01 03:06:38;;;;;;;2.35;2.25;;;12.70;99.90;;;;;;4958198;29;20184;-63
2021/10/01 03:09:04;;;;;;;0.40;0.20;;;12.70;99.90;;;;;;4957023;29;20199;-63
2021/10/01 03:11:33;;;;;;;1.13;1.02;;;12.70;99.90;;;;;;4958132;28;20581;-63
2021/10/01 03:14:01;;;;;;;0.30;0.20;;;12.50;99.90;;;;;;4957435;28;20227;-63
2021/10/01 03:16:27;;;;;;;0.93;0.50;;;12.50;99.90;;;;;;4957910;28;20610;-63
2021/10/01 03:18:55;;;;;;;1.63;0.38;;;12.40;99.90;;;;;;4956881;28;20244;-63
2021/10/01 03:21:23;;;;;;;0.85;0.30;;;12.30;1.00;;;;;;4957426;28;20518;-63
2021/10/01 03:23:48;;;;;;;0.30;0.20;;;12.40;1.00;;;;;;4957309;28;20263;-63
2021/10/01 03:26:14;;;;;;;1.67;0.27;;;12.40;1.00;;;;;;4957359;28;20267;-65
2021/10/01 03:28:41;;;;;;;0.40;0.20;;;12.30;1.00;;;;;;4972502;28;20431;-65
2021/10/01 03:31:08;;;;;;;0.30;0.20;;;12.20;1.00;;;;;;4957007;28;20199;-63
2021/10/01 03:33:33;;;;;;;0.30;0.20;;;12.20;1.00;;;;;;4957161;29;20593;-63
2021/10/01 03:36:00;;;;;;;1.23;1.13;;;12.10;1.00;;;;;;4957174;28;20184;-65
2021/10/01 03:38:26;;;;;;;0.30;0.20;;;12.00;1.00;;;;;;4956662;29;20555;-65
2021/10/01 03:40:53;;;;;;;0.30;0.20;;;12.00;1.00;;;;;;4957226;29;20180;-65
2021/10/01 03:43:24;;;;;;;0.30;0.20;;;12.10;1.00;;;;;;4972178;28;20438;-65
2021/10/01 03:45:50;;;;;;;3.22;0.50;;;12.10;1.00;;;;;;4956899;28;20218;-63
2021/10/01 03:48:16;;;;;;;0.40;0.25;;;12.00;1.00;;;;;;4956760;28;20180;-65
2021/10/01 03:50:41;;;;;;;1.03;0.53;;;12.00;12.50;;;;;;4956957;29;20180;-65
2021/10/01 03:53:07;;;;;;;0.40;0.30;;;12.10;1.00;;;;;;4956797;28;20208;-65
2021/10/01 03:55:33;;;;;;;0.30;0.20;;;12.10;1.00;;;;;;4956818;28;20270;-65
2021/10/01 03:57:59;;;;;;;1.02;0.30;;;12.00;1.00;;;;;;4956746;29;20184;-65
2021/10/01 04:00:25;;;;;;;0.40;0.20;;;11.90;1.00;;;;;;4956676;28;20196;-65
2021/10/01 04:02:50;;;;;;;0.30;0.20;;;11.90;1.00;;;;;;4956815;29;20188;-63
2021/10/01 04:05:16;;;;;;;1.13;0.83;;;12.00;1.00;;;;;;4956762;29;20456;-65
2021/10/01 04:07:42;;;;;;;0.30;0.10;;;12.10;1.00;;;;;;4956468;29;20575;-65
2021/10/01 04:10:08;;;;;;;1.67;0.30;;;12.10;1.00;;;;;;4956388;29;20521;-65
2021/10/01 04:12:34;;;;;;;0.33;0.23;;;12.10;1.00;;;;;;4956263;29;20234;-65
2021/10/01 04:15:00;;;;;;;0.60;0.37;;;12.00;1.00;;;;;;4956267;29;20429;-65
2021/10/01 04:17:25;;;;;;;0.70;0.50;;;12.00;1.00;;;;;;4956364;29;20194;-65
2021/10/01 04:19:51;;;;;;;0.40;0.40;;;12.10;1.00;;;;;;4956307;28;20574;-65
2021/10/01 04:22:17;;;;;;;0.30;0.20;;;12.10;1.00;;;;;;4956347;29;20206;-65
2021/10/01 04:24:43;;;;;;;0.30;0.20;;;12.10;1.00;;;;;;4956351;28;20208;-65
2021/10/01 04:27:09;;;;;;;0.70;0.30;;;12.10;1.00;;;;;;4955963;28;20212;-65
2021/10/01 04:29:35;;;;;;;0.47;0.30;;;12.10;1.00;;;;;;4955015;29;20471;-65
2021/10/01 04:32:04;;;;;;;0.40;0.20;;;12.10;1.00;;;;;;4955585;29;20459;-66
2021/10/01 04:34:33;;;;;;;0.30;0.20;;;12.10;1.00;;;;;;4957379;28;20464;-63
2021/10/01 04:37:00;;;;;;;0.30;0.20;;;12.00;1.00;;;;;;4957623;28;20230;-64
2021/10/01 04:39:28;;;;;;;0.30;0.20;;;12.10;1.00;;;;;;4958225;28;20515;-64
2021/10/01 04:41:54;;;;;;;0.30;0.10;;;12.10;1.00;;;;;;4957074;28;20180;-66
2021/10/01 04:44:20;;;;;;;0.57;0.50;;;12.20;1.00;;;;;;4956160;29;20574;-65
2021/10/01 04:46:45;;;;;;;0.40;0.27;;;12.20;99.90;;;;;;4956169;29;20247;-65
2021/10/01 04:49:12;;;;;;;0.30;0.20;;;12.20;99.90;;;;;;4954986;28;20188;-66
2021/10/01 04:51:38;;;;;;;0.30;0.20;;;12.40;99.90;;;;;;4955992;29;20197;-65
2021/10/01 04:54:03;;;;;;;0.30;0.20;;;12.30;99.90;;;;;;4955885;28;20523;-65
2021/10/01 04:56:29;;;;;;;0.50;0.23;;;12.30;57.40;;;;;;4955823;28;20185;-66
2021/10/01 04:58:55;;;;;;;2.00;0.83;;;12.30;99.90;;;;;;4955851;28;20235;-64
2021/10/01 05:01:20;;;;;;;0.30;0.20;;;12.30;1.00;;;;;;4956271;28;20514;-64
2021/10/01 05:03:46;;;;;;;0.30;0.10;;;12.30;99.90;;;;;;4955719;28;20905;-64
2021/10/01 05:06:12;;;;;;;0.30;0.20;;;12.30;18.90;;;;;;4955766;28;20532;-64
2021/10/01 05:08:37;;;;;;;0.40;0.27;;;12.30;32.00;;;;;;4955399;28;20249;-64
2021/10/01 05:11:03;;;;;;;0.30;0.20;;;12.30;99.90;;;;;;4955602;29;20188;-64
2021/10/01 05:13:28;;;;;;;0.30;0.20;;;12.30;99.90;;;;;;4955457;28;20262;-64
2021/10/01 05:15:54;;;;;;;0.30;0.20;;;12.20;99.90;;;;;;4955417;29;20219;-63
2021/10/01 05:18:22;;;;;;;1.60;1.50;;;12.20;99.90;;;;;;4955155;29;20636;-66
2021/10/01 05:20:47;;;;;;;0.60;0.43;;;12.20;1.00;;;;;;4955426;28;20641;-66
2021/10/01 05:23:13;;;;;;;0.30;0.20;;;12.20;99.90;;;;;;4955381;28;20192;-66
2021/10/01 05:25:39;;;;;;;0.30;0.20;;;12.20;99.90;;;;;;4955249;28;20645;-66
2021/10/01 05:28:05;;;;;;;0.60;0.20;;;12.20;99.90;;;;;;4955166;28;20584;-65
2021/10/01 05:30:32;;;;;;;0.30;0.17;;;12.10;99.90;;;;;;4970288;28;20439;-66
2021/10/01 05:32:57;;;;;;;2.15;0.45;;;12.10;1.00;;;;;;4955225;28;20211;-63
2021/10/01 05:35:23;;;;;;;0.43;0.43;;;12.10;1.00;;;;;;4955223;29;20180;-64
2021/10/01 05:37:49;;;;;;;0.30;0.13;;;12.20;1.00;;;;;;4955023;29;20605;-64
2021/10/01 05:40:14;;;;;;;0.30;0.20;;;12.20;99.90;;;;;;4954937;28;20190;-64
2021/10/01 05:42:40;;;;;;;0.30;0.20;;;12.10;99.90;;;;;;4955118;29;20195;-66
2021/10/01 05:45:07;;;;;;;0.70;0.70;;;12.10;1.00;;;;;;4955015;29;20188;-64
2021/10/01 05:47:33;;;;;;;0.40;0.30;;;11.90;1.00;;;;;;4955264;29;20523;-64
2021/10/01 05:50:03;;;;;;;0.30;0.20;;;11.90;1.00;;;;;;4955255;28;20218;-64
2021/10/01 05:54:57;;;;;;;0.40;0.20;;;11.90;1.10;;;;;;4954936;29;20216;-64
2021/10/01 05:57:23;;;;;;;0.30;0.10;;;11.90;21.80;;;;;;4954794;28;20207;-64
2021/10/01 05:59:49;;;;;;;1.90;0.40;;;12.00;8.40;;;;;;4955705;28;20184;-64
2021/10/01 06:02:17;;;;;;;0.57;0.57;;;11.90;1.00;;;;;;4958527;29;20543;-63
2021/10/01 06:04:43;;;;;;;1.95;0.82;;;11.90;1.00;;;;;;4957638;29;20250;-64
2021/10/01 06:07:11;;;;;;;0.30;0.20;;;11.90;1.00;;;;;;4974105;28;20192;-64
2021/10/01 06:09:38;;;;;;;0.50;0.40;;;12.00;1.00;;;;;;4977675;28;20179;-63
2021/10/01 06:12:03;;;;;;;0.30;0.20;;;12.10;1.00;;;;;;4977801;28;20175;-63
2021/10/01 06:14:29;;;;;;;0.30;0.20;;;12.00;1.00;;;;;;4969770;28;20534;-67
2021/10/01 06:16:55;;;;;;;0.30;0.20;;;12.20;1.00;;;;;;4958357;29;20572;-69
2021/10/01 06:19:21;;;;;;;1.17;0.73;;;12.20;1.00;;;;;;4958381;29;20184;-67
2021/10/01 06:21:48;;;;;;;0.30;0.10;;;12.20;1.00;;;;;;4958355;28;20180;-67
2021/10/01 06:24:13;;;;;;;0.40;0.20;;;12.20;1.00;;;;;;4958449;28;20247;-67
2021/10/01 06:26:39;;;;;;;0.30;0.20;;;12.20;1.00;;;;;;4956665;29;20212;-67
2021/10/01 06:29:04;;;;;;;0.47;0.37;;;12.20;1.00;;;;;;4957864;28;20623;-66
2021/10/01 06:31:30;;;;;;;0.30;0.20;;;12.20;1.00;;;;;;4958112;28;20235;-67
2021/10/01 06:33:56;;;;;;;0.30;0.20;;;12.40;1.00;;;;;;4958643;28;20295;-66
2021/10/01 06:36:23;;;;;;;0.70;0.30;;;12.50;1.00;;;;;;4958278;28;20184;-69
2021/10/01 06:38:49;;;;;;;0.60;0.45;;;12.40;99.90;;;;;;4958056;28;20180;-69
2021/10/01 06:41:15;;;;;;;2.10;1.38;;;12.50;1.00;;;;;;4958114;28;20231;-67
2021/10/01 06:43:43;;;;;;;0.30;0.20;;;12.40;99.90;;;;;;4958236;28;20619;-67
2021/10/01 06:46:20;;;;;;;0.30;0.20;;;12.50;1.00;;;;;;4957992;28;20579;-65
2021/10/01 06:51:47;;;;;;;0.40;0.38;;;12.60;79.40;;;;;;4959309;28;20275;-66
2021/10/01 07:34:24;;;;;;;0.40;0.20;;;13.10;99.90;;;;;;4977122;28;20262;-62
2021/10/01 07:45:59;;;;;;;1.70;0.88;;;13.60;99.90;;;;;;4976719;28;20223;-62
2021/10/01 08:21:07;;;;;;;0.30;0.20;;;13.70;1.00;;;;;;4978103;28;20571;-65
2021/10/01 08:23:36;;;;;;;0.40;0.30;;;13.90;99.90;;;;;;4967964;28;20188;-69
2021/10/01 08:26:02;;;;;;;0.35;0.10;;;14.10;99.90;;;;;;4977760;28;20180;-69
2021/10/01 08:28:27;;;;;;;1.25;0.50;;;14.20;1.00;;;;;;4960201;28;20206;-69
2021/10/01 08:30:53;;;;;;;0.40;0.20;;;14.00;1.00;;;;;;4966622;28;20187;-69
2021/10/01 08:33:19;;;;;;;0.40;0.20;;;13.90;99.90;;;;;;4975611;28;20215;-68
2021/10/01 08:35:44;;;;;;;0.40;0.20;;;14.10;99.90;;;;;;4980116;28;20458;-69
2021/10/01 08:38:10;;;;;;;0.50;0.33;;;14.40;1.00;;;;;;4979816;28;20232;-69
2021/10/01 08:40:36;;;;;;;3.73;0.67;;;14.70;1.00;;;;;;4961386;28;20184;-71
2021/10/01 08:43:01;;;;;;;1.23;0.60;;;14.80;99.90;;;;;;4958582;28;20199;-71
2021/10/01 08:45:27;;;;;;;0.40;0.23;;;14.90;1.00;;;;;;4957079;28;20204;-70
2021/10/01 08:47:57;;;;;;;0.40;0.10;;;15.00;99.90;;;;;;4957425;28;20252;-69
2021/10/01 08:50:25;;;;;;;0.47;0.25;;;15.30;99.90;;;;;;4957307;28;20240;-70
2021/10/01 08:52:51;;;;;;;0.40;0.20;;;15.50;1.00;;;;;;4959028;29;20223;-70
2021/10/01 08:55:18;;;;;;;2.63;0.60;;;15.40;1.00;;;;;;4959459;28;20188;-68
2021/10/01 08:57:43;;;;;;;0.75;0.68;;;15.40;1.00;;;;;;4978291;28;20234;-69
2021/10/01 09:00:13;;;;;;;0.63;0.63;;;15.40;1.00;;;;;;4976949;28;20415;-70
2021/10/01 09:02:39;;;;;;;1.30;0.68;;;15.20;1.00;;;;;;4975638;28;20647;-70
2021/10/01 09:05:05;;;;;;;0.40;0.17;;;15.30;38.50;;;;;;4977676;28;20191;-68
2021/10/01 09:07:31;;;;;;;0.50;0.30;;;15.50;98.20;;;;;;4975856;28;20438;-66
2021/10/01 09:09:57;;;;;;;0.40;0.20;;;15.80;99.90;;;;;;4971503;28;20276;-69
2021/10/01 09:12:23;;;;;;;0.40;0.20;;;15.80;99.90;;;;;;4965462;28;20221;-69
2021/10/01 09:14:54;;;;;;;0.50;0.30;;;15.70;99.90;;;;;;4965177;28;20614;-69
2021/10/01 09:17:30;;;;;;;0.45;0.25;;;15.90;99.90;;;;;;4957995;29;20846;-66
2021/10/01 09:19:58;;;;;;;0.50;0.20;;;16.00;87.60;;;;;;4974823;28;20183;-67
2021/10/01 09:22:29;;;;;;;0.40;0.20;;;15.90;72.60;;;;;;4967352;28;20275;-67
2021/10/01 09:25:27;;;;;;;0.40;0.20;;;16.30;35.50;;;;;;4958838;28;20606;-68
2021/10/01 09:28:03;;;;;;;0.60;0.40;;;16.50;1.00;;;;;;4959471;28;20844;-68
2021/10/01 09:30:41;;;;;;;0.40;0.20;;;16.10;1.00;;;;;;4977590;28;20441;-68
2021/10/01 09:33:13;;;;;;;0.40;0.20;;;16.20;1.00;;;;;;4974704;28;20219;-69
2021/10/01 09:35:42;;;;;;;1.80;1.70;;;16.30;1.00;;;;;;4976898;28;20190;-67
2021/10/01 09:38:17;;;;;;;1.53;0.93;;;16.40;1.00;;;;;;4979457;28;20429;-66
2021/10/01 09:40:46;;;;;;;1.30;0.47;;;16.30;1.00;;;;;;4977304;28;20430;-65
2021/10/01 09:43:28;;;;;;;0.97;0.70;;;16.50;1.00;;;;;;4960385;28;20176;-65
2021/10/01 09:46:09;;;;;;;0.73;0.38;;;16.70;1.00;;;;;;4959423;28;20441;-65
2021/10/01 09:48:39;;;;;;;0.57;0.20;;;16.80;1.00;;;;;;4960631;28;20172;-68
2021/10/01 09:51:19;;;;;;;0.40;0.20;;;16.70;1.00;;;;;;4959329;28;20226;-67
2021/10/01 09:53:55;;;;;;;0.40;0.20;;;16.70;1.00;;;;;;4958932;28;20486;-67
2021/10/01 09:56:30;;;;;;;0.70;0.70;;;17.10;99.90;;;;;;4960441;28;20419;-67
2021/10/01 09:59:21;;;;;;;0.50;0.30;;;17.50;99.90;;;;;;4957812;28;20446;-69
2021/10/01 10:02:11;;;;;;;0.70;0.30;;;17.50;99.90;;;;;;4958687;29;20423;-69
2021/10/01 10:04:45;;;;;;;0.70;0.40;;;17.40;99.90;;;;;;4958765;29;20428;-68
2021/10/01 10:07:22;;;;;;;0.50;0.30;;;17.30;99.90;;;;;;4958548;29;20422;-66
2021/10/01 10:09:51;;;;;;;0.40;0.17;;;17.10;99.90;;;;;;4958341;28;20424;-68
2021/10/01 10:12:34;;;;;;;0.73;0.40;;;17.10;1.00;;;;;;4958259;28;20885;-68
2021/10/01 10:15:00;;;;;;;0.40;0.20;;;17.10;99.90;;;;;;4958593;28;20485;-69
2021/10/01 10:17:28;;;;;;;0.70;0.67;;;17.50;99.90;;;;;;4958441;28;20436;-68
2021/10/01 10:19:56;;;;;;;0.50;0.50;;;17.50;99.90;;;;;;4958027;28;20494;-68
2021/10/01 10:22:24;;;;;;;0.63;0.50;;;17.60;99.90;;;;;;4958596;28;20450;-68
2021/10/01 10:24:50;;;;;;;1.37;0.80;;;17.50;99.90;;;;;;4958366;28;20474;-71
2021/10/01 10:27:17;;;;;;;0.60;0.43;;;17.50;99.90;;;;;;4957915;28;20450;-68
2021/10/01 10:29:45;;;;;;;0.40;0.20;;;17.50;99.90;;;;;;4958061;28;20849;-68
2021/10/01 10:32:12;;;;;;;0.40;0.20;;;17.70;99.90;;;;;;4958168;28;20451;-67
2021/10/01 10:35:11;;;;;;;3.20;1.73;;;18.10;99.90;;;;;;4958020;28;20885;-67
2021/10/01 10:37:40;;;;;;;0.60;0.30;;;18.10;99.90;;;;;;4946343;29;20823;-68
2021/10/01 10:40:11;;;;;;;0.40;0.20;;;18.00;99.90;;;;;;4958141;28;20564;-69
2021/10/01 10:42:45;;;;;;;0.40;0.20;;;18.20;99.90;;;;;;4956854;29;20731;-67
2021/10/01 10:45:24;;;;;;;1.70;0.37;;;18.40;99.90;;;;;;4958183;28;20762;-66
2021/10/01 10:48:02;;;;;;;0.50;0.30;;;18.80;88.80;;;;;;4957947;28;20446;-68
2021/10/01 10:50:30;;;;;;;0.40;0.20;;;19.00;52.80;;;;;;4958076;28;20466;-69
2021/10/01 10:53:15;;;;;;;0.90;0.67;;;19.30;56.00;;;;;;4957674;28;20522;-68
2021/10/01 10:56:18;;;;;;;0.50;0.20;;;19.00;68.00;;;;;;4958140;28;20461;-68
2021/10/01 10:58:45;;;;;;;0.40;0.10;;;18.90;61.60;;;;;;4943514;28;20457;-67
2021/10/01 11:01:14;;;;;;;2.73;1.00;;;19.00;99.90;;;;;;4957871;28;20522;-68
2021/10/01 11:03:40;;;;;;;2.03;0.70;;;18.90;1.00;;;;;;4957158;28;20431;-68
2021/10/01 11:06:09;;;;;;;2.80;0.77;;;18.60;51.00;;;;;;4957615;28;20450;-68
2021/10/01 11:08:36;;;;;;;0.50;0.30;;;18.40;99.90;;;;;;4957081;28;20466;-66
2021/10/01 11:11:02;;;;;;;0.40;0.20;;;18.30;99.90;;;;;;4957180;28;20448;-67
2021/10/01 11:13:30;;;;;;;1.90;1.13;;;18.40;99.90;;;;;;4957000;29;20502;-66
2021/10/01 11:16:13;;;;;;;0.50;0.37;;;18.50;99.90;;;;;;4957348;28;20467;-67
2021/10/01 11:18:46;;;;;;;0.50;0.30;;;18.60;99.90;;;;;;4956563;28;20751;-68
2021/10/01 11:21:27;;;;;;;0.40;0.10;;;18.50;99.90;;;;;;4957188;28;20841;-69
2021/10/01 11:24:18;;;;;;;0.80;0.30;;;18.90;99.90;;;;;;4955823;28;20527;-70
2021/10/01 11:26:59;;;;;;;0.60;0.47;;;19.10;15.40;;;;;;4954147;29;20465;-69
2021/10/01 11:29:33;;;;;;;1.33;1.13;;;19.00;78.80;;;;;;4954255;28;20439;-68
2021/10/01 11:32:07;;;;;;;0.40;0.20;;;19.00;52.10;;;;;;4957001;28;20771;-69
2021/10/01 11:34:44;;;;;;;0.73;0.53;;;18.90;98.70;;;;;;4956651;28;20798;-69
2021/10/01 11:37:36;;;;;;;0.40;0.20;;;19.00;98.20;;;;;;4955174;28;20518;-68
2021/10/01 11:40:19;;;;;;;0.53;0.40;;;19.10;57.10;;;;;;4951124;28;20826;-68
2021/10/01 11:42:46;;;;;;;2.30;0.50;;;18.90;74.70;;;;;;4951703;29;20435;-65
2021/10/01 11:45:19;;;;;;;2.23;0.70;;;19.00;99.90;;;;;;4955655;29;20436;-67
2021/10/01 11:48:05;;;;;;;0.60;0.50;;;18.80;94.50;;;;;;4954625;29;20450;-70
2021/10/01 11:50:50;;;;;;;0.50;0.30;;;18.60;99.90;;;;;;4953813;29;20452;-70
2021/10/01 11:53:22;;;;;;;0.90;0.60;;;18.60;99.90;;;;;;4954996;29;20463;-70
2021/10/01 11:55:55;;;;;;;0.70;0.60;;;18.40;99.90;;;;;;4955657;29;20424;-69
2021/10/01 11:58:22;;;;;;;1.27;0.40;;;18.20;99.90;;;;;;4956106;28;20522;-71
2021/10/01 12:00:48;;;;;;;0.50;0.30;;;18.40;99.90;;;;;;4956830;28;20780;-68
2021/10/01 12:03:16;;;;;;;0.60;0.30;;;18.50;99.90;;;;;;4956592;28;20443;-69
2021/10/01 12:05:49;;;;;;;0.40;0.20;;;18.50;99.90;;;;;;4946439;29;20440;-69
2021/10/01 12:08:20;;;;;;;0.60;0.20;;;18.60;99.90;;;;;;4957929;28;20463;-68
2021/10/01 12:10:54;;;;;;;0.40;0.20;;;18.60;78.10;;;;;;4955909;28;20450;-69
2021/10/01 12:13:25;;;;;;;0.60;0.27;;;18.80;81.10;;;;;;4956862;29;20476;-69
2021/10/01 12:16:00;;;;;;;0.40;0.20;;;19.00;99.90;;;;;;4956462;28;20455;-68
2021/10/01 12:18:44;;;;;;;0.50;0.20;;;18.90;99.10;;;;;;4956127;29;20428;-69
2021/10/01 12:21:13;;;;;;;0.40;0.20;;;18.90;74.50;;;;;;4956713;28;20424;-69
2021/10/01 12:23:44;;;;;;;0.80;0.20;;;18.90;99.90;;;;;;4956401;28;20519;-69
2021/10/01 12:26:31;;;;;;;0.50;0.20;;;19.10;54.00;;;;;;4954703;29;20510;-69
2021/10/01 12:29:12;;;;;;;0.40;0.20;;;19.20;99.90;;;;;;4956250;29;20434;-67
2021/10/01 12:32:00;;;;;;;0.50;0.20;;;19.40;31.90;;;;;;4956471;28;20598;-68
2021/10/01 12:34:35;;;;;;;0.73;0.50;;;19.60;1.00;;;;;;4956087;28;20991;-68
2021/10/01 12:37:37;;;;;;;0.40;0.20;;;19.40;31.70;;;;;;4956040;28;20430;-67
2021/10/01 12:40:04;;;;;;;0.60;0.50;;;19.10;14.70;;;;;;4962358;28;20443;-68
2021/10/01 12:42:34;;;;;;;0.70;0.40;;;19.10;1.00;;;;;;4974533;28;20423;-67
2021/10/01 12:45:09;;;;;;;0.70;0.33;;;18.90;29.70;;;;;;4956029;28;20467;-69
2021/10/01 12:47:38;;;;;;;0.50;0.30;;;18.80;19.40;;;;;;4955829;28;20427;-69
2021/10/01 12:50:06;;;;;;;0.57;0.30;;;19.00;82.20;;;;;;4955702;29;20435;-69
2021/10/01 12:52:32;;;;;;;7.63;1.43;;;18.90;93.80;;;;;;4954592;29;20828;-69
2021/10/01 12:55:01;;;;;;;0.40;0.20;;;18.80;99.40;;;;;;4955788;28;20428;-69
2021/10/01 12:57:29;;;;;;;0.50;0.23;;;18.60;99.90;;;;;;4955492;28;20456;-69
2021/10/01 13:00:03;;;;;;;1.20;0.50;;;18.40;99.90;;;;;;4955336;28;20432;-69
2021/10/01 13:02:40;;;;;;;0.57;0.23;;;18.00;99.90;;;;;;4954575;28;20435;-68
2021/10/01 13:05:20;;;;;;;1.10;0.50;;;18.10;99.90;;;;;;4955723;28;20435;-66
2021/10/01 13:07:46;;;;;;;0.40;0.20;;;18.00;99.90;;;;;;4955551;28;20542;-67
2021/10/01 13:10:15;;;;;;;0.40;0.10;;;18.00;99.90;;;;;;4954777;28;20428;-67
2021/10/01 13:13:24;;;;;;;3.70;0.47;;;18.30;99.90;;;;;;4955494;28;20550;-66
2021/10/01 13:15:57;;;;;;;0.70;0.47;;;18.00;99.90;;;;;;4933410;28;20448;-67
2021/10/01 13:18:28;;;;;;;0.40;0.20;;;18.10;99.90;;;;;;4954962;29;20458;-68
2021/10/01 13:21:06;;;;;;;0.60;0.33;;;18.10;99.90;;;;;;4970452;28;20599;-68
2021/10/01 13:23:37;;;;;;;6.23;1.03;;;18.10;99.90;;;;;;4976017;28;20899;-69
2021/10/01 13:26:10;;;;;;;1.13;0.30;;;18.00;99.90;;;;;;4974723;28;20423;-67
2021/10/01 13:28:36;;;;;;;1.90;0.27;;;18.10;99.90;;;;;;4974276;28;20439;-67
2021/10/01 13:31:01;;;;;;;2.03;1.37;;;18.30;99.90;;;;;;4960981;28;20436;-69
2021/10/01 13:33:28;;;;;;;0.70;0.60;;;18.20;99.90;;;;;;4955219;28;20554;-69
2021/10/01 13:35:56;;;;;;;0.40;0.20;;;18.10;99.90;;;;;;4955056;28;20180;-67
2021/10/01 13:38:27;;;;;;;0.40;0.20;;;18.50;99.90;;;;;;4954990;28;20439;-64
2021/10/01 13:40:54;;;;;;;1.80;0.30;;;18.80;99.90;;;;;;4955132;28;20435;-69
2021/10/01 13:43:19;;;;;;;0.70;0.30;;;18.60;99.90;;;;;;4954891;28;20442;-66
2021/10/01 13:45:45;;;;;;;0.60;0.60;;;18.50;99.90;;;;;;4955040;28;20830;-67
2021/10/01 13:48:12;;;;;;;7.30;1.13;;;18.40;99.90;;;;;;4936660;28;20203;-63
2021/10/01 13:50:38;;;;;;;0.40;0.20;;;18.50;99.90;;;;;;4936433;29;20219;-63
2021/10/01 13:53:03;;;;;;;2.77;0.40;;;18.30;99.90;;;;;;4936083;29;20503;-62
2021/10/01 13:55:29;;;;;;;0.40;0.20;;;18.20;99.90;;;;;;4934671;28;20188;-67
2021/10/01 13:57:55;;;;;;;0.50;0.30;;;18.10;99.90;;;;;;4936957;28;20180;-63
2021/10/01 14:00:23;;;;;;;0.40;0.20;;;18.10;99.90;;;;;;4953596;28;20215;-64
2021/10/01 14:02:48;;;;;;;0.90;0.40;;;18.20;99.90;;;;;;4954801;28;20184;-67
2021/10/01 14:05:15;;;;;;;0.40;0.20;;;18.30;99.90;;;;;;4954410;28;20456;-68
2021/10/01 14:07:42;;;;;;;0.40;0.20;;;18.40;99.90;;;;;;4954957;28;20192;-66
2021/10/01 14:10:10;;;;;;;5.10;0.77;;;18.40;99.90;;;;;;4963813;28;20431;-66
2021/10/01 14:12:36;;;;;;;0.63;0.30;;;18.30;99.90;;;;;;4972633;28;20482;-66
2021/10/01 14:15:03;;;;;;;0.50;0.33;;;18.30;99.90;;;;;;4971490;28;20431;-65
2021/10/01 14:17:29;;;;;;;0.50;0.27;;;18.20;99.90;;;;;;4974040;28;20514;-65
2021/10/01 14:19:54;;;;;;;0.50;0.20;;;18.30;99.90;;;;;;4972951;28;20514;-62
2021/10/01 14:22:20;;;;;;;0.53;0.23;;;18.40;99.90;;;;;;4976201;28;20186;-64
2021/10/01 14:24:46;;;;;;;0.40;0.20;;;18.30;99.90;;;;;;4977722;28;20175;-65
2021/10/01 14:27:12;;;;;;;0.83;0.50;;;18.20;99.90;;;;;;4977306;28;20450;-66
2021/10/01 14:29:38;;;;;;;1.13;1.03;;;18.30;99.90;;;;;;4977427;28;20811;-65
2021/10/01 14:32:04;;;;;;;0.40;0.20;;;18.30;99.90;;;;;;4977841;28;20175;-64
2021/10/01 14:34:29;;;;;;;2.00;1.90;;;18.30;99.90;;;;;;4977416;28;20207;-64
2021/10/01 14:36:55;;;;;;;0.40;0.20;;;18.20;99.90;;;;;;4976256;28;20454;-61